createdAt,value
2019-04-10T00:02:44.161Z,75.70
2019-04-10T00:05:28.906Z,75.40
2019-04-10T00:08:14.311Z,76.90
2019-04-10T00:11:00.444Z,76.90
2019-04-10T00:13:47.776Z,76.70
2019-04-10T00:16:33.120Z,76.50
2019-04-10T00:19:18.323Z,77.90
2019-04-10T00:22:04.596Z,77.20
2019-04-10T00:24:50.482Z,77.00
2019-04-10T00:27:36.778Z,77.00
2019-04-10T00:30:22.316Z,76.30
2019-04-10T00:33:08.208Z,77.30
2019-04-10T00:35:54.038Z,78.70
2019-04-10T00:38:39.919Z,77.80
2019-04-10T00:41:25.024Z,79.50
2019-04-10T00:44:11.095Z,80.20
2019-04-10T00:46:58.984Z,80.00
2019-04-10T00:49:44.171Z,79.90
2019-04-10T00:52:30.348Z,80.80
2019-04-10T00:55:15.808Z,81.20
2019-04-10T00:58:01.516Z,84.10
2019-04-10T01:00:47.641Z,85.10
2019-04-10T01:03:42.129Z,84.60
2019-04-10T01:06:28.174Z,84.60
2019-04-10T01:09:13.261Z,85.10
2019-04-10T01:11:59.279Z,87.50
2019-04-10T01:14:44.391Z,84.90
2019-04-10T01:17:29.290Z,86.10
2019-04-10T01:20:15.280Z,88.00
2019-04-10T01:23:00.507Z,88.60
2019-04-10T01:25:46.399Z,89.60
2019-04-10T01:28:31.750Z,90.00
2019-04-10T01:31:17.146Z,90.90
2019-04-10T01:34:03.191Z,89.90
2019-04-10T01:36:48.393Z,89.50
2019-04-10T01:40:00.382Z,91.60
2019-04-10T01:42:58.931Z,91.90
2019-04-10T01:45:32.010Z,92.70
2019-04-10T01:48:17.467Z,92.30
2019-04-10T01:51:04.186Z,92.30
2019-04-10T01:53:50.193Z,92.90
2019-04-10T01:56:36.446Z,93.40
2019-04-10T01:59:23.681Z,93.50
2019-04-10T02:02:14.811Z,92.70
2019-04-10T02:05:00.665Z,93.50
2019-04-10T02:07:57.849Z,93.90
2019-04-10T02:10:34.215Z,93.90
2019-04-10T02:13:19.270Z,94.00
2019-04-10T02:16:04.151Z,93.30
2019-04-10T02:18:49.883Z,93.10
2019-04-10T02:21:35.962Z,93.10
2019-04-10T02:24:21.094Z,93.90
2019-04-10T02:27:06.488Z,93.50
2019-04-10T02:29:52.298Z,93.80
2019-04-10T02:32:39.208Z,94.30
2019-04-10T02:35:24.730Z,94.30
2019-04-10T02:38:29.126Z,93.90
2019-04-10T02:40:57.569Z,94.90
2019-04-10T02:43:43.084Z,95.00
2019-04-10T02:46:29.276Z,95.00
2019-04-10T02:49:14.436Z,96.00
2019-04-10T02:51:59.895Z,96.70
2019-04-10T02:54:46.010Z,97.20
2019-04-10T02:57:31.580Z,97.50
2019-04-10T03:00:18.122Z,98.00
2019-04-10T03:03:05.392Z,98.20
2019-04-10T03:05:51.101Z,98.50
2019-04-10T03:08:51.544Z,98.20
2019-04-10T03:11:24.291Z,98.40
2019-04-10T03:14:10.652Z,98.10
2019-04-10T03:16:56.031Z,98.40
2019-04-10T03:19:41.385Z,98.40
2019-04-10T03:22:27.587Z,99.00
2019-04-10T03:25:12.913Z,99.70
2019-04-10T03:27:58.703Z,99.60
2019-04-10T03:30:44.551Z,99.90
2019-04-10T03:33:35.298Z,99.90
2019-04-10T03:36:19.839Z,99.60
2019-04-10T03:39:07.942Z,99.10
2019-04-10T03:41:54.451Z,99.50
2019-04-10T03:44:39.644Z,99.50
2019-04-10T03:47:25.131Z,99.60
2019-04-10T03:50:10.788Z,99.10
2019-04-10T03:52:56.093Z,99.30
2019-04-10T03:55:41.236Z,99.20
2019-04-10T03:58:27.318Z,99.80
2019-04-10T04:01:13.001Z,99.90
2019-04-10T04:03:57.680Z,99.90
2019-04-10T04:06:42.690Z,99.90
2019-04-10T04:09:27.926Z,99.90
2019-04-10T04:12:13.410Z,99.90
2019-04-10T04:14:59.120Z,99.90
2019-04-10T04:17:44.482Z,99.90
2019-04-10T04:20:30.731Z,99.90
2019-04-10T04:23:17.108Z,99.90
2019-04-10T04:26:03.048Z,99.90
2019-04-10T04:28:49.423Z,99.90
2019-04-10T04:31:35.426Z,99.90
2019-04-10T04:34:21.018Z,99.90
2019-04-10T04:37:06.491Z,99.90
2019-04-10T04:39:52.175Z,99.90
2019-04-10T04:42:38.537Z,99.90
2019-04-10T04:45:23.644Z,99.90
2019-04-10T04:48:08.445Z,99.90
2019-04-10T04:50:53.130Z,99.90
2019-04-10T04:53:38.066Z,99.90
2019-04-10T04:56:24.005Z,99.90
2019-04-10T04:59:10.185Z,99.90
2019-04-10T05:01:57.040Z,99.90
2019-04-10T05:04:41.863Z,99.90
2019-04-10T05:07:29.224Z,99.90
2019-04-10T05:10:15.279Z,99.90
2019-04-10T05:13:00.604Z,99.90
2019-04-10T05:15:45.350Z,99.90
2019-04-10T05:18:30.309Z,99.90
2019-04-10T05:21:15.749Z,99.90
2019-04-10T05:24:00.794Z,99.90
2019-04-10T05:26:49.001Z,99.90
2019-04-10T05:29:34.583Z,99.90
2019-04-10T05:32:21.342Z,99.90
2019-04-10T05:35:08.499Z,99.90
2019-04-10T05:37:54.142Z,99.90
2019-04-10T05:40:40.025Z,99.80
2019-04-10T05:43:26.044Z,99.90
2019-04-10T05:46:12.299Z,99.90
2019-04-10T05:48:57.961Z,99.50
2019-04-10T05:51:43.675Z,99.10
2019-04-10T05:54:29.200Z,99.40
2019-04-10T05:57:13.824Z,99.20
2019-04-10T05:59:58.806Z,99.30
2019-04-10T06:02:43.866Z,98.90
2019-04-10T06:05:29.840Z,98.80
2019-04-10T06:08:14.693Z,98.80
2019-04-10T06:11:00.240Z,99.10
2019-04-10T06:13:45.671Z,98.70
2019-04-10T06:16:30.815Z,97.30
2019-04-10T06:19:16.178Z,97.20
2019-04-10T06:22:01.190Z,96.10
2019-04-10T06:24:46.778Z,96.80
2019-04-10T06:27:32.675Z,97.10
2019-04-10T06:30:17.780Z,96.50
2019-04-10T06:33:05.151Z,96.60
2019-04-10T06:35:50.910Z,96.30
2019-04-10T06:38:39.087Z,95.40
2019-04-10T06:41:24.531Z,96.50
2019-04-10T06:44:09.933Z,97.10
2019-04-10T06:46:55.054Z,96.60
2019-04-10T06:49:40.718Z,95.60
2019-04-10T06:52:25.605Z,94.10
2019-04-10T06:55:11.336Z,94.90
2019-04-10T06:57:58.178Z,94.40
2019-04-10T07:00:46.681Z,93.10
2019-04-10T07:03:45.794Z,93.20
2019-04-10T07:06:21.801Z,93.00
2019-04-10T07:09:05.594Z,92.50
2019-04-10T07:11:56.314Z,92.80
2019-04-10T07:14:38.475Z,92.40
2019-04-10T07:17:24.980Z,91.70
2019-04-10T07:20:11.192Z,91.00
2019-04-10T07:22:57.026Z,91.10
2019-04-10T07:25:45.444Z,91.20
2019-04-10T07:28:30.209Z,91.20
2019-04-10T07:31:15.930Z,90.90
2019-04-10T07:34:01.401Z,90.90
2019-04-10T07:36:46.922Z,88.40
2019-04-10T07:39:33.520Z,88.10
2019-04-10T07:42:26.773Z,86.30
2019-04-10T07:45:07.512Z,87.70
2019-04-10T07:47:52.491Z,88.00
2019-04-10T07:50:39.001Z,85.70
2019-04-10T07:53:24.652Z,86.30
2019-04-10T07:56:15.101Z,83.80
2019-04-10T07:58:57.178Z,82.20
2019-04-10T08:01:42.310Z,83.40
2019-04-10T08:04:27.079Z,83.00
2019-04-10T08:07:24.442Z,81.00
2019-04-10T08:09:59.298Z,77.70
2019-04-10T08:12:49.065Z,77.10
2019-04-10T08:15:31.641Z,76.30
2019-04-10T08:18:18.931Z,76.50
2019-04-10T08:21:04.965Z,75.20
2019-04-10T08:23:51.466Z,76.10
2019-04-10T08:26:38.804Z,75.40
2019-04-10T08:29:24.168Z,73.90
2019-04-10T08:32:09.857Z,72.60
2019-04-10T08:34:55.894Z,72.10
2019-04-10T08:37:41.316Z,71.60
2019-04-10T08:40:28.028Z,71.30
2019-04-10T08:43:13.814Z,71.00
2019-04-10T08:45:58.970Z,68.60
2019-04-10T08:48:44.047Z,67.30
2019-04-10T08:51:28.721Z,69.30
2019-04-10T08:54:14.110Z,68.40
2019-04-10T08:56:59.853Z,68.10
2019-04-10T08:59:46.819Z,65.90
2019-04-10T09:02:32.458Z,66.80
2019-04-10T09:05:19.601Z,66.10
2019-04-10T09:08:07.311Z,66.50
2019-04-10T09:10:52.529Z,64.20
2019-04-10T09:13:38.824Z,64.70
2019-04-10T09:16:24.725Z,64.20
2019-04-10T09:19:10.229Z,63.50
2019-04-10T09:21:55.425Z,64.10
2019-04-10T09:24:40.459Z,60.40
2019-04-10T09:27:25.458Z,58.60
2019-04-10T09:30:11.149Z,57.80
2019-04-10T09:32:57.040Z,58.00
2019-04-10T09:35:42.602Z,57.70
2019-04-10T09:38:28.475Z,57.20
2019-04-10T09:41:14.009Z,57.90
2019-04-10T09:44:00.272Z,56.40
2019-04-10T09:46:45.680Z,56.50
2019-04-10T09:49:38.263Z,54.40
2019-04-10T09:52:18.706Z,55.20
2019-04-10T09:55:05.100Z,54.60
2019-04-10T09:57:51.621Z,54.40
2019-04-10T10:00:38.164Z,55.30
2019-04-10T10:03:24.115Z,54.30
2019-04-10T10:06:22.025Z,54.10
2019-04-10T10:08:56.598Z,53.90
2019-04-10T10:11:42.816Z,55.00
2019-04-10T10:14:28.551Z,55.40
2019-04-10T10:17:14.791Z,54.10
2019-04-10T10:20:00.138Z,53.70
2019-04-10T10:22:45.410Z,54.70
2019-04-10T10:25:31.210Z,56.30
2019-04-10T10:28:16.250Z,56.00
2019-04-10T10:31:01.956Z,56.20
2019-04-10T10:33:47.998Z,57.00
2019-04-10T10:36:40.772Z,56.20
2019-04-10T10:39:21.114Z,54.90
2019-04-10T10:42:09.503Z,55.90
2019-04-10T10:44:54.456Z,56.00
2019-04-10T10:47:40.454Z,55.50
2019-04-10T10:50:25.621Z,54.00
2019-04-10T10:53:12.231Z,54.00
2019-04-10T10:55:58.013Z,55.00
2019-04-10T10:58:44.708Z,54.90
2019-04-10T11:01:29.617Z,55.60
2019-04-10T11:04:15.039Z,52.50
2019-04-10T11:07:01.180Z,50.20
2019-04-10T11:09:46.945Z,49.50
2019-04-10T11:12:31.958Z,48.40
2019-04-10T11:15:18.614Z,50.10
2019-04-10T11:18:04.473Z,49.20
2019-04-10T11:20:49.901Z,49.30
2019-04-10T11:23:36.368Z,49.00
2019-04-10T11:26:24.006Z,47.40
2019-04-10T11:29:08.147Z,48.20
2019-04-10T11:31:53.729Z,48.80
2019-04-10T11:34:40.594Z,48.10
2019-04-10T11:37:35.025Z,50.00
2019-04-10T11:40:15.833Z,47.70
2019-04-10T11:43:03.523Z,48.20
2019-04-10T11:45:52.450Z,48.20
2019-04-10T11:48:36.632Z,49.40
2019-04-10T11:51:23.500Z,48.40
2019-04-10T11:54:13.032Z,48.10
2019-04-10T11:56:58.649Z,48.90
2019-04-10T11:59:44.761Z,47.20
2019-04-10T12:02:32.298Z,50.20
2019-04-10T12:05:19.900Z,49.60
2019-04-10T12:08:28.001Z,48.10
2019-04-10T12:11:10.700Z,49.00
2019-04-10T12:13:38.703Z,48.50
2019-04-10T12:16:23.848Z,49.50
2019-04-10T12:19:08.957Z,51.40
2019-04-10T12:21:55.771Z,51.80
2019-04-10T12:24:41.560Z,51.00
2019-04-10T12:27:29.319Z,50.10
2019-04-10T12:30:15.307Z,49.50
2019-04-10T12:33:01.688Z,49.40
2019-04-10T12:35:47.757Z,46.40
2019-04-10T12:38:33.906Z,46.30
2019-04-10T12:41:21.430Z,45.60
2019-04-10T12:44:07.478Z,45.40
2019-04-10T12:46:53.320Z,45.50
2019-04-10T12:49:39.347Z,47.80
2019-04-10T12:52:24.762Z,47.30
2019-04-10T12:55:10.267Z,45.40
2019-04-10T12:58:06.033Z,48.40
2019-04-10T13:00:42.944Z,46.70
2019-04-10T13:03:29.443Z,46.00
2019-04-10T13:06:15.807Z,45.80
2019-04-10T13:09:07.812Z,45.60
2019-04-10T13:11:48.951Z,44.90
2019-04-10T13:14:34.860Z,42.60
2019-04-10T13:17:22.680Z,41.40
2019-04-10T13:20:09.815Z,41.00
2019-04-10T13:22:54.772Z,40.00
2019-04-10T13:25:40.753Z,40.20
2019-04-10T13:28:26.024Z,40.00
2019-04-10T13:31:10.863Z,39.50
2019-04-10T13:33:55.912Z,40.10
2019-04-10T13:36:41.889Z,40.10
2019-04-10T13:39:27.056Z,39.60
2019-04-10T13:42:12.740Z,38.90
2019-04-10T13:44:59.165Z,40.70
2019-04-10T13:47:44.988Z,39.00
2019-04-10T13:50:30.784Z,37.00
2019-04-10T13:53:15.877Z,36.30
2019-04-10T13:56:01.259Z,36.70
2019-04-10T13:58:46.768Z,36.30
2019-04-10T14:01:33.713Z,35.40
2019-04-10T14:04:19.163Z,34.40
2019-04-10T14:07:05.062Z,34.40
2019-04-10T14:09:51.974Z,36.90
2019-04-10T14:12:37.086Z,37.30
2019-04-10T14:15:24.321Z,37.00
2019-04-10T14:18:10.171Z,35.90
2019-04-10T14:20:55.514Z,37.00
2019-04-10T14:23:43.117Z,36.60
2019-04-10T14:26:42.215Z,35.00
2019-04-10T14:29:18.470Z,35.40
2019-04-10T14:32:09.218Z,36.30
2019-04-10T14:34:55.004Z,37.20
2019-04-10T14:37:41.211Z,35.60
2019-04-10T14:40:28.970Z,37.30
2019-04-10T14:43:15.040Z,36.50
2019-04-10T14:46:00.187Z,37.40
2019-04-10T14:48:44.974Z,40.30
2019-04-10T14:51:30.382Z,36.70
2019-04-10T14:54:15.624Z,38.30
2019-04-10T14:57:00.726Z,38.90
2019-04-10T14:59:46.446Z,37.50
2019-04-10T15:02:31.712Z,39.40
2019-04-10T15:05:18.133Z,39.00
2019-04-10T15:08:03.661Z,39.20
2019-04-10T15:10:49.130Z,40.50
2019-04-10T15:13:34.592Z,41.20
2019-04-10T15:16:20.726Z,40.90
2019-04-10T15:19:06.066Z,41.50
2019-04-10T15:21:52.286Z,40.20
2019-04-10T15:24:37.685Z,37.90
2019-04-10T15:27:23.122Z,38.40
2019-04-10T15:30:08.413Z,38.50
2019-04-10T15:32:53.912Z,37.50
2019-04-10T15:35:38.953Z,36.30
2019-04-10T15:38:24.180Z,37.40
2019-04-10T15:41:10.523Z,36.20
2019-04-10T15:43:55.663Z,36.50
2019-04-10T15:46:41.975Z,36.10
2019-04-10T15:49:27.255Z,35.70
2019-04-10T15:52:12.514Z,35.20
2019-04-10T15:54:57.439Z,35.80
2019-04-10T15:57:50.677Z,35.10
2019-04-10T16:00:30.797Z,36.20
2019-04-10T16:03:17.460Z,34.90
2019-04-10T16:06:03.932Z,34.10
2019-04-10T16:08:50.367Z,33.70
2019-04-10T16:11:43.801Z,35.00
2019-04-10T16:14:30.577Z,32.30
2019-04-10T16:17:27.162Z,33.00
2019-04-10T16:20:21.655Z,34.80
2019-04-10T16:23:14.331Z,35.40
2019-04-10T16:26:00.857Z,36.50
2019-04-10T16:28:47.191Z,36.10
2019-04-10T16:31:32.171Z,35.10
2019-04-10T16:34:19.826Z,34.30
2019-04-10T16:37:06.042Z,34.60
2019-04-10T16:39:58.590Z,34.40
2019-04-10T16:42:39.922Z,36.80
2019-04-10T16:45:26.523Z,37.60
2019-04-10T16:48:12.254Z,38.20
2019-04-10T16:50:57.202Z,38.60
2019-04-10T16:53:44.058Z,39.20
2019-04-10T16:56:29.761Z,41.20
2019-04-10T16:59:14.480Z,41.20
2019-04-10T17:02:00.729Z,42.10
2019-04-10T17:04:47.972Z,42.80
2019-04-10T17:07:33.327Z,43.00
2019-04-10T17:10:24.295Z,43.60
2019-04-10T17:13:07.474Z,43.20
2019-04-10T17:15:53.803Z,44.00
2019-04-10T17:18:39.318Z,43.30
2019-04-10T17:21:26.593Z,43.30
2019-04-10T17:24:11.528Z,44.80
2019-04-10T17:26:57.289Z,44.90
2019-04-10T17:29:42.270Z,46.20
2019-04-10T17:32:27.496Z,46.00
2019-04-10T17:35:14.338Z,46.80
2019-04-10T17:38:00.260Z,47.10
2019-04-10T17:40:50.837Z,46.90
2019-04-10T17:43:35.059Z,47.70
2019-04-10T17:46:20.818Z,46.60
2019-04-10T17:49:07.477Z,46.90
2019-04-10T17:51:54.601Z,47.90
2019-04-10T17:54:39.717Z,49.10
2019-04-10T17:57:35.432Z,47.50
2019-04-10T18:00:21.112Z,48.40
2019-04-10T18:03:07.589Z,50.10
2019-04-10T18:05:55.163Z,49.60
2019-04-10T18:08:41.051Z,49.60
2019-04-10T18:11:27.872Z,50.30
2019-04-10T18:14:13.213Z,50.30
2019-04-10T18:16:58.377Z,51.30
2019-04-10T18:19:44.139Z,51.60
2019-04-10T18:22:29.107Z,51.60
2019-04-10T18:25:14.427Z,51.40
2019-04-10T18:27:59.852Z,51.10
2019-04-10T18:30:46.023Z,52.50
2019-04-10T18:33:34.232Z,53.60
2019-04-10T18:36:19.568Z,53.30
2019-04-10T18:39:06.024Z,54.10
2019-04-10T18:41:51.984Z,54.10
2019-04-10T18:44:38.242Z,54.30
2019-04-10T18:47:24.996Z,54.40
2019-04-10T18:50:10.414Z,54.10
2019-04-10T18:52:56.066Z,54.40
2019-04-10T18:55:42.493Z,54.70
2019-04-10T18:58:30.122Z,55.40
2019-04-10T19:01:34.846Z,55.20
2019-04-10T19:04:27.689Z,55.10
2019-04-10T19:07:13.314Z,56.70
2019-04-10T19:09:58.816Z,56.10
2019-04-10T19:12:43.798Z,56.30
2019-04-10T19:15:29.286Z,56.50
2019-04-10T19:18:15.230Z,56.70
2019-04-10T19:21:00.483Z,57.50
2019-04-10T19:23:45.722Z,56.90
2019-04-10T19:26:31.485Z,56.90
2019-04-10T19:29:17.388Z,56.60
2019-04-10T19:32:06.054Z,56.40
2019-04-10T19:34:51.821Z,56.90
2019-04-10T19:37:37.426Z,56.10
2019-04-10T19:40:23.547Z,57.00
2019-04-10T19:43:10.239Z,56.90
2019-04-10T19:45:56.360Z,57.90
2019-04-10T19:48:42.102Z,58.00
2019-04-10T19:51:27.187Z,57.70
2019-04-10T19:54:13.609Z,58.20
2019-04-10T19:56:59.170Z,59.20
2019-04-10T19:59:44.455Z,60.40
2019-04-10T20:02:30.933Z,60.70
2019-04-10T20:05:16.968Z,60.40
2019-04-10T20:08:02.195Z,60.90
2019-04-10T20:10:48.447Z,61.90
2019-04-10T20:13:34.620Z,63.40
2019-04-10T20:16:20.187Z,63.30
2019-04-10T20:19:05.570Z,62.80
2019-04-10T20:21:50.424Z,63.70
2019-04-10T20:24:36.740Z,65.50
2019-04-10T20:27:23.461Z,65.80
2019-04-10T20:30:10.390Z,66.20
2019-04-10T20:32:56.466Z,65.00
2019-04-10T20:35:42.542Z,65.70
2019-04-10T20:38:28.762Z,65.50
2019-04-10T20:41:14.168Z,65.70
2019-04-10T20:43:59.567Z,66.00
2019-04-10T20:46:44.756Z,66.10
2019-04-10T20:49:30.224Z,67.30
2019-04-10T20:52:15.600Z,67.60
2019-04-10T20:55:01.503Z,70.30
2019-04-10T20:57:47.821Z,70.10
2019-04-10T21:00:38.643Z,71.50
2019-04-10T21:03:23.822Z,73.60
2019-04-10T21:06:09.441Z,77.70
2019-04-10T21:08:54.591Z,79.80
2019-04-10T21:11:41.821Z,83.00
2019-04-10T21:14:27.585Z,84.60
2019-04-10T21:17:14.215Z,84.60
2019-04-10T21:20:00.099Z,86.30
2019-04-10T21:22:45.227Z,87.10
2019-04-10T21:25:30.956Z,89.10
2019-04-10T21:28:16.316Z,89.00
2019-04-10T21:31:18.336Z,90.60
2019-04-10T21:34:17.635Z,90.90
2019-04-10T21:37:03.797Z,91.50
2019-04-10T21:39:50.023Z,92.90
2019-04-10T21:42:35.037Z,93.20
2019-04-10T21:45:20.572Z,94.50
2019-04-10T21:48:06.792Z,95.20
2019-04-10T21:50:51.818Z,95.30
2019-04-10T21:53:37.339Z,94.20
2019-04-10T21:56:22.591Z,95.00
2019-04-10T21:59:09.160Z,96.80
2019-04-10T22:01:54.945Z,96.00
2019-04-10T22:04:41.283Z,97.00
2019-04-10T22:07:32.183Z,98.10
2019-04-10T22:10:22.445Z,97.80
2019-04-10T22:13:07.831Z,98.40
2019-04-10T22:15:53.390Z,99.10
2019-04-10T22:18:39.402Z,98.40
2019-04-10T22:21:24.954Z,98.70
2019-04-10T22:24:10.193Z,99.60
2019-04-10T22:26:55.606Z,99.50
2019-04-10T22:29:40.742Z,99.90
2019-04-10T22:32:26.866Z,99.90
2019-04-10T22:35:12.241Z,99.90
2019-04-10T22:37:57.070Z,99.90
2019-04-10T22:40:42.076Z,99.90
2019-04-10T22:43:30.051Z,99.90
2019-04-10T22:46:15.176Z,99.90
2019-04-10T22:49:01.956Z,99.90
2019-04-10T22:51:47.095Z,99.90
2019-04-10T22:54:32.518Z,99.90
2019-04-10T22:57:17.353Z,99.90
2019-04-10T23:00:05.238Z,99.90
2019-04-10T23:02:50.618Z,99.90
2019-04-10T23:05:36.478Z,99.90
2019-04-10T23:08:23.139Z,99.90
2019-04-10T23:11:09.560Z,99.90
2019-04-10T23:13:54.348Z,99.90
2019-04-10T23:16:41.089Z,99.90
2019-04-10T23:19:26.365Z,99.90
2019-04-10T23:22:11.820Z,99.90
2019-04-10T23:24:58.156Z,99.90
2019-04-10T23:27:44.105Z,99.90
2019-04-10T23:30:29.008Z,99.90
2019-04-10T23:36:26.471Z,99.90
2019-04-10T23:39:12.254Z,99.90
2019-04-10T23:41:57.261Z,99.90
2019-04-10T23:44:42.909Z,99.90
2019-04-10T23:47:28.600Z,99.90
2019-04-10T23:50:15.006Z,99.90
2019-04-10T23:53:00.780Z,99.90
2019-04-10T23:55:46.222Z,99.90
2019-04-10T23:58:31.807Z,99.90
